createdAt,value
2022-10-04T00:08:56.384Z,1020.55
2022-10-04T00:18:57.122Z,1020.50
2022-10-04T00:28:56.793Z,1020.47
2022-10-04T00:38:56.998Z,1020.33
2022-10-04T00:48:58.674Z,1020.29
2022-10-04T00:58:57.331Z,1020.38
2022-10-04T01:08:58.786Z,1020.41
2022-10-04T01:18:57.805Z,1020.27
2022-10-04T01:29:00.708Z,1020.19
2022-10-04T01:38:58.150Z,1020.19
2022-10-04T01:48:58.694Z,1020.09
2022-10-04T01:58:58.539Z,1020.10
2022-10-04T02:08:58.841Z,1020.14
2022-10-04T02:18:58.887Z,1020.13
2022-10-04T02:28:59.192Z,1019.96
2022-10-04T02:38:59.224Z,1020.07
2022-10-04T02:48:59.532Z,1019.96
2022-10-04T02:58:59.617Z,1019.86
2022-10-04T03:08:59.889Z,1019.84
2022-10-04T03:18:59.917Z,1019.74
2022-10-04T03:29:00.231Z,1019.69
2022-10-04T03:39:00.280Z,1019.80
2022-10-04T03:49:00.597Z,1019.85
2022-10-04T03:59:00.633Z,1019.79
2022-10-04T04:09:00.939Z,1019.88
2022-10-04T04:19:00.968Z,1019.81
2022-10-04T04:29:01.299Z,1019.86
2022-10-04T04:39:01.316Z,1019.78
2022-10-04T04:49:01.664Z,1019.79
2022-10-04T04:59:01.703Z,1019.86
2022-10-04T05:09:02.031Z,1019.90
2022-10-04T05:19:02.071Z,1019.88
2022-10-04T05:29:02.329Z,1019.91
2022-10-04T05:39:02.561Z,1019.93
2022-10-04T05:49:02.885Z,1019.93
2022-10-04T05:59:02.903Z,1019.87
2022-10-04T06:09:03.246Z,1019.85
2022-10-04T06:19:03.272Z,1020.02
2022-10-04T06:29:03.587Z,1020.24
2022-10-04T06:39:04.570Z,1020.55
2022-10-04T06:49:03.939Z,1020.69
2022-10-04T06:59:03.973Z,1020.85
2022-10-04T07:09:04.293Z,1020.83
2022-10-04T07:19:04.381Z,1020.73
2022-10-04T07:29:04.541Z,1020.58
2022-10-04T07:39:04.558Z,1020.73
2022-10-04T07:49:04.893Z,1020.84
2022-10-04T07:59:04.915Z,1020.81
2022-10-04T08:09:05.235Z,1020.57
2022-10-04T08:19:05.273Z,1020.63
2022-10-04T08:29:05.586Z,1020.83
2022-10-04T08:39:05.628Z,1020.90
2022-10-04T08:49:05.931Z,1021.01
2022-10-04T08:59:05.981Z,1020.93
2022-10-04T09:09:06.281Z,1020.70
2022-10-04T09:19:06.370Z,1020.78
2022-10-04T09:29:06.426Z,1020.82
2022-10-04T09:39:28.834Z,1020.74
2022-10-04T09:49:07.918Z,1020.71
2022-10-04T09:59:07.273Z,1020.59
2022-10-04T10:09:07.292Z,1020.56
2022-10-04T10:19:07.617Z,1020.65
2022-10-04T10:29:07.644Z,1020.62
2022-10-04T10:39:07.964Z,1020.72
2022-10-04T10:49:07.995Z,1020.66
2022-10-04T10:59:08.317Z,1020.67
2022-10-04T11:09:08.353Z,1020.49
2022-10-04T11:19:08.662Z,1020.31
2022-10-04T11:29:08.685Z,1020.19
2022-10-04T11:39:09.013Z,1020.15
2022-10-04T11:49:09.034Z,1020.07
2022-10-04T11:59:09.364Z,1019.96
2022-10-04T12:09:09.395Z,1019.90
2022-10-04T12:19:09.730Z,1019.81
2022-10-04T12:29:09.747Z,1019.69
2022-10-04T12:39:10.069Z,1019.63
2022-10-04T12:49:10.100Z,1019.49
2022-10-04T12:59:10.517Z,1019.44
2022-10-04T13:09:10.569Z,1019.38
2022-10-04T13:19:10.860Z,1019.41
2022-10-04T13:29:10.879Z,1019.34
2022-10-04T13:39:11.224Z,1019.38
2022-10-04T13:49:11.241Z,1019.46
2022-10-04T13:59:11.574Z,1019.41
2022-10-04T14:09:11.600Z,1019.56
2022-10-04T14:19:12.026Z,1019.54
2022-10-04T14:29:12.045Z,1019.65
2022-10-04T14:39:12.285Z,1019.70
2022-10-04T14:49:12.522Z,1019.85
2022-10-04T14:59:12.808Z,1019.85
2022-10-04T15:09:12.836Z,1019.84
2022-10-04T15:19:13.159Z,1020.09
2022-10-04T15:29:13.186Z,1020.10
2022-10-04T15:39:13.511Z,1020.13
2022-10-04T15:49:13.533Z,1020.18
2022-10-04T15:59:13.863Z,1020.20
2022-10-04T16:09:13.895Z,1020.14
2022-10-04T16:19:14.205Z,1020.09
2022-10-04T16:29:14.233Z,1020.05
2022-10-04T16:39:14.554Z,1020.00
2022-10-04T16:49:14.582Z,1019.95
2022-10-04T16:59:15.026Z,1019.96
2022-10-04T17:09:15.064Z,1020.03
2022-10-04T17:19:15.367Z,1020.01
2022-10-04T17:29:15.412Z,1020.11
2022-10-04T17:39:15.722Z,1020.14
2022-10-04T17:49:15.781Z,1020.13
2022-10-04T17:59:15.861Z,1020.05
2022-10-04T18:09:19.397Z,1020.09
2022-10-04T18:19:16.241Z,1020.16
2022-10-04T18:29:16.800Z,1020.30
2022-10-04T18:39:16.696Z,1020.32
2022-10-04T18:49:17.267Z,1020.27
2022-10-04T18:59:17.364Z,1020.23
2022-10-04T19:09:17.490Z,1020.33
2022-10-04T19:19:17.611Z,1020.41
2022-10-04T19:29:17.794Z,1020.36
2022-10-04T19:39:17.985Z,1020.35
2022-10-04T19:49:17.983Z,1020.39
2022-10-04T19:59:18.284Z,1020.39
2022-10-04T20:09:18.379Z,1020.50
2022-10-04T20:19:18.469Z,1020.51
2022-10-04T20:29:18.791Z,1020.63
2022-10-04T20:39:18.828Z,1020.64
2022-10-04T20:49:19.138Z,1020.67
2022-10-04T20:59:19.187Z,1020.78
2022-10-04T21:09:19.484Z,1020.87
2022-10-04T21:19:19.512Z,1020.94
2022-10-04T21:29:19.835Z,1021.00
2022-10-04T21:39:19.860Z,1021.04
2022-10-04T21:49:20.200Z,1021.03
2022-10-04T21:59:20.249Z,1021.03
2022-10-04T22:09:20.555Z,1021.10
2022-10-04T22:19:20.586Z,1021.18
2022-10-04T22:29:20.902Z,1021.13
2022-10-04T22:39:20.928Z,1021.12
2022-10-04T22:49:21.352Z,1021.06
2022-10-04T22:59:21.380Z,1021.08
2022-10-04T23:09:21.691Z,1021.10
2022-10-04T23:19:21.718Z,1021.16
2022-10-04T23:29:22.039Z,1021.19
2022-10-04T23:39:22.079Z,1021.22
2022-10-04T23:49:22.400Z,1021.11
2022-10-04T23:59:22.440Z,1021.16
